sensor_id;sensor_type;location;lat;lon;timestamp;P1;durP1;ratioP1;P2;durP2;ratioP2
6121;SDS011;3091;51.506;7.672;2023-05-18T00:02:02;15.90;;;15.30;;
6121;SDS011;3091;51.506;7.672;2023-05-18T00:04:28;16.83;;;16.17;;
6121;SDS011;3091;51.506;7.672;2023-05-18T00:06:55;16.50;;;15.90;;
6121;SDS011;3091;51.506;7.672;2023-05-18T00:09:25;16.50;;;15.90;;
6121;SDS011;3091;51.506;7.672;2023-05-18T00:11:52;16.17;;;15.60;;
6121;SDS011;3091;51.506;7.672;2023-05-18T00:14:18;17.40;;;16.80;;
6121;SDS011;3091;51.506;7.672;2023-05-18T00:16:44;18.30;;;17.60;;
6121;SDS011;3091;51.506;7.672;2023-05-18T00:19:13;17.00;;;16.40;;
6121;SDS011;3091;51.506;7.672;2023-05-18T00:21:40;17.20;;;16.60;;
6121;SDS011;3091;51.506;7.672;2023-05-18T00:24:07;16.90;;;16.30;;
6121;SDS011;3091;51.506;7.672;2023-05-18T00:26:35;17.20;;;16.60;;
6121;SDS011;3091;51.506;7.672;2023-05-18T00:29:01;16.40;;;15.80;;
6121;SDS011;3091;51.506;7.672;2023-05-18T00:31:27;16.20;;;15.60;;
6121;SDS011;3091;51.506;7.672;2023-05-18T00:33:53;16.20;;;15.60;;
6121;SDS011;3091;51.506;7.672;2023-05-18T00:36:19;16.80;;;16.20;;
6121;SDS011;3091;51.506;7.672;2023-05-18T00:38:45;16.70;;;16.10;;
6121;SDS011;3091;51.506;7.672;2023-05-18T00:41:11;16.70;;;16.10;;
6121;SDS011;3091;51.506;7.672;2023-05-18T00:43:39;16.10;;;15.50;;
6121;SDS011;3091;51.506;7.672;2023-05-18T00:46:05;17.43;;;16.83;;
6121;SDS011;3091;51.506;7.672;2023-05-18T00:48:31;19.03;;;18.23;;
6121;SDS011;3091;51.506;7.672;2023-05-18T00:50:57;16.67;;;16.07;;
6121;SDS011;3091;51.506;7.672;2023-05-18T00:53:23;15.90;;;15.40;;
6121;SDS011;3091;51.506;7.672;2023-05-18T00:55:49;16.00;;;15.47;;
6121;SDS011;3091;51.506;7.672;2023-05-18T00:58:17;16.60;;;16.00;;
6121;SDS011;3091;51.506;7.672;2023-05-18T01:00:43;16.47;;;15.97;;
6121;SDS011;3091;51.506;7.672;2023-05-18T01:03:09;16.70;;;16.20;;
6121;SDS011;3091;51.506;7.672;2023-05-18T01:05:39;17.30;;;16.70;;
6121;SDS011;3091;51.506;7.672;2023-05-18T01:08:05;16.47;;;15.97;;
6121;SDS011;3091;51.506;7.672;2023-05-18T01:10:32;17.83;;;17.13;;
6121;SDS011;3091;51.506;7.672;2023-05-18T01:13:01;16.77;;;16.27;;
6121;SDS011;3091;51.506;7.672;2023-05-18T01:20:36;16.50;;;15.90;;
6121;SDS011;3091;51.506;7.672;2023-05-18T01:28:20;15.03;;;14.53;;
6121;SDS011;3091;51.506;7.672;2023-05-18T01:30:50;15.10;;;14.60;;
6121;SDS011;3091;51.506;7.672;2023-05-18T01:33:16;16.10;;;15.50;;
6121;SDS011;3091;51.506;7.672;2023-05-18T01:35:42;16.07;;;15.57;;
6121;SDS011;3091;51.506;7.672;2023-05-18T01:38:22;15.00;;;14.50;;
6121;SDS011;3091;51.506;7.672;2023-05-18T01:41:09;15.10;;;14.60;;
6121;SDS011;3091;51.506;7.672;2023-05-18T01:43:36;16.17;;;15.67;;
6121;SDS011;3091;51.506;7.672;2023-05-18T01:46:24;17.53;;;16.77;;
6121;SDS011;3091;51.506;7.672;2023-05-18T01:48:53;17.40;;;16.80;;
6121;SDS011;3091;51.506;7.672;2023-05-18T01:51:20;17.47;;;16.87;;
6121;SDS011;3091;51.506;7.672;2023-05-18T01:53:51;17.70;;;17.10;;
6121;SDS011;3091;51.506;7.672;2023-05-18T01:56:18;17.50;;;16.90;;
6121;SDS011;3091;51.506;7.672;2023-05-18T01:58:45;16.90;;;16.30;;
6121;SDS011;3091;51.506;7.672;2023-05-18T02:01:12;16.60;;;16.00;;
6121;SDS011;3091;51.506;7.672;2023-05-18T02:03:40;16.80;;;16.20;;
6121;SDS011;3091;51.506;7.672;2023-05-18T02:06:08;16.70;;;16.10;;
6121;SDS011;3091;51.506;7.672;2023-05-18T02:08:34;16.70;;;16.10;;
6121;SDS011;3091;51.506;7.672;2023-05-18T02:11:00;16.50;;;15.90;;
6121;SDS011;3091;51.506;7.672;2023-05-18T02:13:26;19.70;;;18.90;;
6121;SDS011;3091;51.506;7.672;2023-05-18T02:15:52;16.30;;;15.70;;
6121;SDS011;3091;51.506;7.672;2023-05-18T02:18:18;16.30;;;15.70;;
6121;SDS011;3091;51.506;7.672;2023-05-18T02:20:46;16.27;;;15.67;;
6121;SDS011;3091;51.506;7.672;2023-05-18T02:23:13;17.80;;;17.00;;
6121;SDS011;3091;51.506;7.672;2023-05-18T02:25:39;16.50;;;15.90;;
6121;SDS011;3091;51.506;7.672;2023-05-18T02:28:08;16.10;;;15.50;;
6121;SDS011;3091;51.506;7.672;2023-05-18T02:30:34;16.37;;;15.77;;
6121;SDS011;3091;51.506;7.672;2023-05-18T02:33:00;16.97;;;16.37;;
6121;SDS011;3091;51.506;7.672;2023-05-18T02:35:28;17.60;;;16.90;;
6121;SDS011;3091;51.506;7.672;2023-05-18T02:37:54;18.60;;;17.90;;
6121;SDS011;3091;51.506;7.672;2023-05-18T02:40:22;17.83;;;17.13;;
6121;SDS011;3091;51.506;7.672;2023-05-18T02:42:48;18.50;;;17.80;;
6121;SDS011;3091;51.506;7.672;2023-05-18T02:45:14;18.63;;;17.93;;
6121;SDS011;3091;51.506;7.672;2023-05-18T02:47:40;18.77;;;17.97;;
6121;SDS011;3091;51.506;7.672;2023-05-18T02:50:08;18.90;;;18.10;;
6121;SDS011;3091;51.506;7.672;2023-05-18T02:52:34;18.50;;;17.70;;
6121;SDS011;3091;51.506;7.672;2023-05-18T02:55:00;18.37;;;17.60;;
6121;SDS011;3091;51.506;7.672;2023-05-18T02:57:26;18.33;;;17.63;;
6121;SDS011;3091;51.506;7.672;2023-05-18T02:59:52;18.27;;;17.57;;
6121;SDS011;3091;51.506;7.672;2023-05-18T03:02:18;18.10;;;17.30;;
6121;SDS011;3091;51.506;7.672;2023-05-18T03:04:46;18.30;;;17.50;;
6121;SDS011;3091;51.506;7.672;2023-05-18T03:07:18;20.23;;;19.33;;
6121;SDS011;3091;51.506;7.672;2023-05-18T03:09:44;18.63;;;17.83;;
6121;SDS011;3091;51.506;7.672;2023-05-18T03:12:10;18.20;;;17.50;;
6121;SDS011;3091;51.506;7.672;2023-05-18T03:14:36;18.50;;;17.70;;
6121;SDS011;3091;51.506;7.672;2023-05-18T03:17:02;18.30;;;17.50;;
6121;SDS011;3091;51.506;7.672;2023-05-18T03:19:29;18.00;;;17.30;;
6121;SDS011;3091;51.506;7.672;2023-05-18T03:21:56;18.00;;;17.30;;
6121;SDS011;3091;51.506;7.672;2023-05-18T03:24:22;17.70;;;17.00;;
6121;SDS011;3091;51.506;7.672;2023-05-18T03:26:50;17.50;;;16.80;;
6121;SDS011;3091;51.506;7.672;2023-05-18T03:29:18;17.30;;;16.60;;
6121;SDS011;3091;51.506;7.672;2023-05-18T03:31:47;17.87;;;17.17;;
6121;SDS011;3091;51.506;7.672;2023-05-18T03:34:13;17.57;;;16.87;;
6121;SDS011;3091;51.506;7.672;2023-05-18T03:36:40;17.90;;;17.20;;
6121;SDS011;3091;51.506;7.672;2023-05-18T03:39:06;18.00;;;17.30;;
6121;SDS011;3091;51.506;7.672;2023-05-18T03:41:33;18.57;;;17.77;;
6121;SDS011;3091;51.506;7.672;2023-05-18T03:43:59;18.80;;;18.00;;
6121;SDS011;3091;51.506;7.672;2023-05-18T03:46:25;18.50;;;17.70;;
6121;SDS011;3091;51.506;7.672;2023-05-18T03:48:51;18.77;;;17.97;;
6121;SDS011;3091;51.506;7.672;2023-05-18T03:51:18;18.70;;;17.90;;
6121;SDS011;3091;51.506;7.672;2023-05-18T03:53:44;18.80;;;18.00;;
6121;SDS011;3091;51.506;7.672;2023-05-18T03:56:11;19.20;;;18.40;;
6121;SDS011;3091;51.506;7.672;2023-05-18T03:58:37;19.00;;;18.20;;
6121;SDS011;3091;51.506;7.672;2023-05-18T04:01:03;19.30;;;18.40;;
6121;SDS011;3091;51.506;7.672;2023-05-18T04:03:29;18.70;;;17.90;;
6121;SDS011;3091;51.506;7.672;2023-05-18T04:05:58;19.20;;;18.40;;
6121;SDS011;3091;51.506;7.672;2023-05-18T04:08:24;19.10;;;18.30;;
6121;SDS011;3091;51.506;7.672;2023-05-18T04:10:50;19.20;;;18.40;;
6121;SDS011;3091;51.506;7.672;2023-05-18T04:13:16;19.17;;;18.37;;
6121;SDS011;3091;51.506;7.672;2023-05-18T04:15:42;18.60;;;17.80;;
6121;SDS011;3091;51.506;7.672;2023-05-18T04:18:11;18.60;;;17.80;;
6121;SDS011;3091;51.506;7.672;2023-05-18T04:20:38;18.83;;;18.03;;
6121;SDS011;3091;51.506;7.672;2023-05-18T04:23:06;19.20;;;18.40;;
6121;SDS011;3091;51.506;7.672;2023-05-18T04:25:34;19.30;;;18.50;;
6121;SDS011;3091;51.506;7.672;2023-05-18T04:28:00;18.93;;;18.13;;
6121;SDS011;3091;51.506;7.672;2023-05-18T04:30:27;19.60;;;18.80;;
6121;SDS011;3091;51.506;7.672;2023-05-18T04:32:53;19.27;;;18.47;;
6121;SDS011;3091;51.506;7.672;2023-05-18T04:35:22;19.00;;;18.20;;
6121;SDS011;3091;51.506;7.672;2023-05-18T04:37:51;21.13;;;20.23;;
6121;SDS011;3091;51.506;7.672;2023-05-18T04:40:18;23.47;;;22.47;;
6121;SDS011;3091;51.506;7.672;2023-05-18T04:42:44;27.10;;;25.70;;
6121;SDS011;3091;51.506;7.672;2023-05-18T04:45:17;30.30;;;29.00;;
6121;SDS011;3091;51.506;7.672;2023-05-18T04:47:47;33.60;;;32.30;;
6121;SDS011;3091;51.506;7.672;2023-05-18T04:50:17;33.53;;;32.33;;
6121;SDS011;3091;51.506;7.672;2023-05-18T04:52:44;33.10;;;31.90;;
6121;SDS011;3091;51.506;7.672;2023-05-18T04:55:13;28.73;;;27.63;;
6121;SDS011;3091;51.506;7.672;2023-05-18T04:57:39;26.20;;;24.93;;
6121;SDS011;3091;51.506;7.672;2023-05-18T05:00:06;22.70;;;22.00;;
6121;SDS011;3091;51.506;7.672;2023-05-18T05:02:33;20.30;;;19.60;;
6121;SDS011;3091;51.506;7.672;2023-05-18T05:04:59;19.20;;;18.60;;
6121;SDS011;3091;51.506;7.672;2023-05-18T05:07:25;17.67;;;17.07;;
6121;SDS011;3091;51.506;7.672;2023-05-18T05:09:51;15.50;;;15.00;;
6121;SDS011;3091;51.506;7.672;2023-05-18T05:12:17;14.83;;;14.33;;
6121;SDS011;3091;51.506;7.672;2023-05-18T05:14:43;13.30;;;12.90;;
6121;SDS011;3091;51.506;7.672;2023-05-18T05:17:12;13.10;;;12.70;;
6121;SDS011;3091;51.506;7.672;2023-05-18T05:19:38;11.90;;;11.50;;
6121;SDS011;3091;51.506;7.672;2023-05-18T05:22:06;12.47;;;12.07;;
6121;SDS011;3091;51.506;7.672;2023-05-18T05:24:32;11.73;;;11.33;;
6121;SDS011;3091;51.506;7.672;2023-05-18T05:26:58;12.00;;;11.60;;
6121;SDS011;3091;51.506;7.672;2023-05-18T05:29:24;12.30;;;11.90;;
6121;SDS011;3091;51.506;7.672;2023-05-18T05:31:51;11.07;;;10.77;;
6121;SDS011;3091;51.506;7.672;2023-05-18T05:34:17;10.40;;;10.10;;
6121;SDS011;3091;51.506;7.672;2023-05-18T05:36:43;11.63;;;11.20;;
6121;SDS011;3091;51.506;7.672;2023-05-18T05:39:10;11.13;;;10.73;;
6121;SDS011;3091;51.506;7.672;2023-05-18T05:41:37;10.00;;;9.70;;
6121;SDS011;3091;51.506;7.672;2023-05-18T05:44:03;11.13;;;10.43;;
6121;SDS011;3091;51.506;7.672;2023-05-18T05:46:29;11.07;;;10.40;;
6121;SDS011;3091;51.506;7.672;2023-05-18T05:48:55;10.37;;;10.07;;
6121;SDS011;3091;51.506;7.672;2023-05-18T05:51:21;10.17;;;9.77;;
6121;SDS011;3091;51.506;7.672;2023-05-18T05:53:47;9.80;;;9.50;;
6121;SDS011;3091;51.506;7.672;2023-05-18T05:56:13;11.40;;;11.00;;
6121;SDS011;3091;51.506;7.672;2023-05-18T05:58:40;11.10;;;10.77;;
6121;SDS011;3091;51.506;7.672;2023-05-18T06:01:06;11.10;;;10.80;;
6121;SDS011;3091;51.506;7.672;2023-05-18T06:03:34;11.20;;;10.80;;
6121;SDS011;3091;51.506;7.672;2023-05-18T06:06:01;11.10;;;10.73;;
6121;SDS011;3091;51.506;7.672;2023-05-18T06:08:27;11.60;;;11.20;;
6121;SDS011;3091;51.506;7.672;2023-05-18T06:10:53;10.60;;;10.30;;
6121;SDS011;3091;51.506;7.672;2023-05-18T06:13:19;11.53;;;11.13;;
6121;SDS011;3091;51.506;7.672;2023-05-18T06:15:45;11.10;;;10.70;;
6121;SDS011;3091;51.506;7.672;2023-05-18T06:18:12;9.17;;;8.87;;
6121;SDS011;3091;51.506;7.672;2023-05-18T06:20:38;10.80;;;10.13;;
6121;SDS011;3091;51.506;7.672;2023-05-18T06:23:04;8.90;;;8.60;;
6121;SDS011;3091;51.506;7.672;2023-05-18T06:25:30;8.60;;;8.40;;
6121;SDS011;3091;51.506;7.672;2023-05-18T06:27:56;10.70;;;10.00;;
6121;SDS011;3091;51.506;7.672;2023-05-18T06:30:22;11.00;;;10.70;;
6121;SDS011;3091;51.506;7.672;2023-05-18T06:32:48;11.00;;;10.60;;
6121;SDS011;3091;51.506;7.672;2023-05-18T06:35:14;9.70;;;9.40;;
6121;SDS011;3091;51.506;7.672;2023-05-18T06:37:40;8.70;;;8.40;;
6121;SDS011;3091;51.506;7.672;2023-05-18T06:40:06;10.30;;;9.90;;
6121;SDS011;3091;51.506;7.672;2023-05-18T06:42:32;10.00;;;9.60;;
6121;SDS011;3091;51.506;7.672;2023-05-18T06:44:58;9.80;;;9.50;;
6121;SDS011;3091;51.506;7.672;2023-05-18T06:47:24;13.20;;;12.40;;
6121;SDS011;3091;51.506;7.672;2023-05-18T06:49:50;12.10;;;11.63;;
6121;SDS011;3091;51.506;7.672;2023-05-18T06:52:16;10.90;;;10.60;;
6121;SDS011;3091;51.506;7.672;2023-05-18T06:54:42;9.70;;;9.40;;
6121;SDS011;3091;51.506;7.672;2023-05-18T06:57:08;9.90;;;9.60;;
6121;SDS011;3091;51.506;7.672;2023-05-18T06:59:34;10.27;;;9.87;;
6121;SDS011;3091;51.506;7.672;2023-05-18T07:02:00;9.90;;;9.60;;
6121;SDS011;3091;51.506;7.672;2023-05-18T07:04:27;11.97;;;11.57;;
6121;SDS011;3091;51.506;7.672;2023-05-18T07:06:53;20.87;;;11.93;;
6121;SDS011;3091;51.506;7.672;2023-05-18T07:09:20;11.43;;;11.03;;
6121;SDS011;3091;51.506;7.672;2023-05-18T07:11:46;11.40;;;11.00;;
6121;SDS011;3091;51.506;7.672;2023-05-18T07:14:15;11.40;;;11.00;;
6121;SDS011;3091;51.506;7.672;2023-05-18T07:16:41;9.63;;;9.23;;
6121;SDS011;3091;51.506;7.672;2023-05-18T07:19:08;10.40;;;10.10;;
6121;SDS011;3091;51.506;7.672;2023-05-18T07:21:34;12.07;;;11.67;;
6121;SDS011;3091;51.506;7.672;2023-05-18T07:24:00;9.93;;;9.63;;
6121;SDS011;3091;51.506;7.672;2023-05-18T07:26:26;10.07;;;9.77;;
6121;SDS011;3091;51.506;7.672;2023-05-18T07:28:53;12.20;;;11.70;;
6121;SDS011;3091;51.506;7.672;2023-05-18T07:31:19;11.53;;;11.13;;
6121;SDS011;3091;51.506;7.672;2023-05-18T07:33:46;11.07;;;10.70;;
6121;SDS011;3091;51.506;7.672;2023-05-18T07:36:12;11.70;;;10.90;;
6121;SDS011;3091;51.506;7.672;2023-05-18T07:38:41;10.90;;;10.50;;
6121;SDS011;3091;51.506;7.672;2023-05-18T07:41:07;10.60;;;10.30;;
6121;SDS011;3091;51.506;7.672;2023-05-18T07:43:33;12.40;;;12.00;;
6121;SDS011;3091;51.506;7.672;2023-05-18T07:45:59;13.00;;;12.50;;
6121;SDS011;3091;51.506;7.672;2023-05-18T07:48:25;12.20;;;11.80;;
6121;SDS011;3091;51.506;7.672;2023-05-18T07:50:51;13.43;;;12.83;;
6121;SDS011;3091;51.506;7.672;2023-05-18T07:53:18;11.70;;;11.30;;
6121;SDS011;3091;51.506;7.672;2023-05-18T07:55:44;12.67;;;12.17;;
6121;SDS011;3091;51.506;7.672;2023-05-18T07:58:10;12.10;;;11.60;;
6121;SDS011;3091;51.506;7.672;2023-05-18T08:00:37;11.10;;;10.80;;
6121;SDS011;3091;51.506;7.672;2023-05-18T08:03:03;11.10;;;10.80;;
6121;SDS011;3091;51.506;7.672;2023-05-18T08:05:30;10.10;;;9.80;;
6121;SDS011;3091;51.506;7.672;2023-05-18T08:07:57;11.30;;;10.60;;
6121;SDS011;3091;51.506;7.672;2023-05-18T08:10:24;10.30;;;10.00;;
6121;SDS011;3091;51.506;7.672;2023-05-18T08:12:50;11.40;;;11.00;;
6121;SDS011;3091;51.506;7.672;2023-05-18T08:15:16;11.40;;;11.00;;
6121;SDS011;3091;51.506;7.672;2023-05-18T08:17:42;11.90;;;11.50;;
6121;SDS011;3091;51.506;7.672;2023-05-18T08:20:10;11.93;;;11.53;;
6121;SDS011;3091;51.506;7.672;2023-05-18T08:22:38;12.37;;;11.97;;
6121;SDS011;3091;51.506;7.672;2023-05-18T08:25:04;11.70;;;11.30;;
6121;SDS011;3091;51.506;7.672;2023-05-18T08:27:31;11.60;;;11.20;;
6121;SDS011;3091;51.506;7.672;2023-05-18T08:29:57;11.60;;;11.20;;
6121;SDS011;3091;51.506;7.672;2023-05-18T08:32:25;12.60;;;11.83;;
6121;SDS011;3091;51.506;7.672;2023-05-18T08:34:51;9.90;;;9.60;;
6121;SDS011;3091;51.506;7.672;2023-05-18T08:37:18;10.00;;;9.70;;
6121;SDS011;3091;51.506;7.672;2023-05-18T08:39:45;10.67;;;10.37;;
6121;SDS011;3091;51.506;7.672;2023-05-18T08:42:45;10.80;;;10.40;;
6121;SDS011;3091;51.506;7.672;2023-05-18T08:45:10;11.70;;;11.30;;
6121;SDS011;3091;51.506;7.672;2023-05-18T08:47:37;12.63;;;12.17;;
6121;SDS011;3091;51.506;7.672;2023-05-18T08:50:04;10.90;;;10.60;;
6121;SDS011;3091;51.506;7.672;2023-05-18T08:52:34;10.00;;;9.70;;
6121;SDS011;3091;51.506;7.672;2023-05-18T08:55:03;10.87;;;10.47;;
6121;SDS011;3091;51.506;7.672;2023-05-18T08:57:30;10.30;;;10.00;;
6121;SDS011;3091;51.506;7.672;2023-05-18T08:59:57;12.57;;;12.17;;
6121;SDS011;3091;51.506;7.672;2023-05-18T09:02:25;12.10;;;11.70;;
6121;SDS011;3091;51.506;7.672;2023-05-18T09:04:51;11.80;;;11.40;;
6121;SDS011;3091;51.506;7.672;2023-05-18T09:07:18;11.80;;;11.40;;
6121;SDS011;3091;51.506;7.672;2023-05-18T09:09:45;11.50;;;11.10;;
6121;SDS011;3091;51.506;7.672;2023-05-18T09:12:12;11.90;;;11.50;;
6121;SDS011;3091;51.506;7.672;2023-05-18T09:14:38;13.93;;;13.13;;
6121;SDS011;3091;51.506;7.672;2023-05-18T09:17:05;17.77;;;12.63;;
6121;SDS011;3091;51.506;7.672;2023-05-18T09:19:31;12.40;;;11.90;;
6121;SDS011;3091;51.506;7.672;2023-05-18T09:21:57;12.00;;;11.60;;
6121;SDS011;3091;51.506;7.672;2023-05-18T09:24:23;11.63;;;11.23;;
6121;SDS011;3091;51.506;7.672;2023-05-18T09:26:50;10.10;;;9.80;;
6121;SDS011;3091;51.506;7.672;2023-05-18T09:29:17;10.50;;;10.10;;
6121;SDS011;3091;51.506;7.672;2023-05-18T09:31:43;10.03;;;9.73;;
6121;SDS011;3091;51.506;7.672;2023-05-18T09:34:10;10.33;;;10.03;;
6121;SDS011;3091;51.506;7.672;2023-05-18T09:36:36;12.47;;;11.90;;
6121;SDS011;3091;51.506;7.672;2023-05-18T09:39:08;11.70;;;11.30;;
6121;SDS011;3091;51.506;7.672;2023-05-18T09:41:41;12.00;;;11.60;;
6121;SDS011;3091;51.506;7.672;2023-05-18T09:44:07;14.30;;;12.83;;
6121;SDS011;3091;51.506;7.672;2023-05-18T09:46:36;11.63;;;11.23;;
6121;SDS011;3091;51.506;7.672;2023-05-18T09:49:05;10.30;;;10.00;;
6121;SDS011;3091;51.506;7.672;2023-05-18T09:51:35;10.60;;;10.30;;
6121;SDS011;3091;51.506;7.672;2023-05-18T09:54:01;11.03;;;10.40;;
6121;SDS011;3091;51.506;7.672;2023-05-18T09:56:30;10.40;;;10.10;;
6121;SDS011;3091;51.506;7.672;2023-05-18T09:59:06;12.50;;;12.00;;
6121;SDS011;3091;51.506;7.672;2023-05-18T10:01:33;12.00;;;11.60;;
6121;SDS011;3091;51.506;7.672;2023-05-18T10:04:04;11.80;;;11.40;;
6121;SDS011;3091;51.506;7.672;2023-05-18T10:06:31;11.97;;;11.57;;
6121;SDS011;3091;51.506;7.672;2023-05-18T10:09:00;12.80;;;12.30;;
6121;SDS011;3091;51.506;7.672;2023-05-18T10:11:29;11.70;;;11.30;;
6121;SDS011;3091;51.506;7.672;2023-05-18T10:13:55;12.10;;;11.70;;
6121;SDS011;3091;51.506;7.672;2023-05-18T10:16:23;11.97;;;11.57;;
6121;SDS011;3091;51.506;7.672;2023-05-18T10:18:49;11.07;;;10.67;;
6121;SDS011;3091;51.506;7.672;2023-05-18T10:21:17;10.80;;;10.30;;
6121;SDS011;3091;51.506;7.672;2023-05-18T10:23:43;10.20;;;9.90;;
6121;SDS011;3091;51.506;7.672;2023-05-18T10:26:10;10.63;;;10.33;;
6121;SDS011;3091;51.506;7.672;2023-05-18T10:28:37;12.17;;;11.77;;
6121;SDS011;3091;51.506;7.672;2023-05-18T10:31:05;12.10;;;11.70;;
6121;SDS011;3091;51.506;7.672;2023-05-18T10:33:33;11.57;;;10.97;;
6121;SDS011;3091;51.506;7.672;2023-05-18T10:36:00;10.57;;;10.27;;
6121;SDS011;3091;51.506;7.672;2023-05-18T10:38:27;10.37;;;10.07;;
6121;SDS011;3091;51.506;7.672;2023-05-18T10:40:54;12.27;;;11.87;;
6121;SDS011;3091;51.506;7.672;2023-05-18T10:43:21;12.30;;;11.90;;
6121;SDS011;3091;51.506;7.672;2023-05-18T10:45:57;13.00;;;12.50;;
6121;SDS011;3091;51.506;7.672;2023-05-18T10:48:24;10.30;;;10.00;;
6121;SDS011;3091;51.506;7.672;2023-05-18T10:50:52;10.60;;;10.27;;
6121;SDS011;3091;51.506;7.672;2023-05-18T10:53:18;10.20;;;9.90;;
6121;SDS011;3091;51.506;7.672;2023-05-18T10:55:49;12.93;;;12.43;;
6121;SDS011;3091;51.506;7.672;2023-05-18T10:58:17;12.73;;;12.23;;
6121;SDS011;3091;51.506;7.672;2023-05-18T11:00:48;12.30;;;11.90;;
6121;SDS011;3091;51.506;7.672;2023-05-18T11:03:16;10.70;;;10.40;;
6121;SDS011;3091;51.506;7.672;2023-05-18T11:05:42;10.20;;;9.80;;
6121;SDS011;3091;51.506;7.672;2023-05-18T11:08:09;10.30;;;10.00;;
6121;SDS011;3091;51.506;7.672;2023-05-18T11:10:38;11.83;;;11.43;;
6121;SDS011;3091;51.506;7.672;2023-05-18T11:13:05;19.93;;;12.17;;
6121;SDS011;3091;51.506;7.672;2023-05-18T11:18:15;13.20;;;12.70;;
6121;SDS011;3091;51.506;7.672;2023-05-18T11:20:43;12.10;;;11.70;;
6121;SDS011;3091;51.506;7.672;2023-05-18T11:23:10;12.20;;;11.80;;
6121;SDS011;3091;51.506;7.672;2023-05-18T11:25:39;12.70;;;12.20;;
6121;SDS011;3091;51.506;7.672;2023-05-18T11:28:08;12.00;;;11.60;;
6121;SDS011;3091;51.506;7.672;2023-05-18T11:33:07;12.60;;;12.20;;
6121;SDS011;3091;51.506;7.672;2023-05-18T11:35:33;12.93;;;12.43;;
6121;SDS011;3091;51.506;7.672;2023-05-18T11:38:06;12.60;;;12.17;;
6121;SDS011;3091;51.506;7.672;2023-05-18T11:40:46;12.40;;;12.00;;
6121;SDS011;3091;51.506;7.672;2023-05-18T11:43:30;13.43;;;12.93;;
6121;SDS011;3091;51.506;7.672;2023-05-18T11:45:57;13.17;;;12.60;;
6121;SDS011;3091;51.506;7.672;2023-05-18T11:48:30;12.37;;;11.97;;
6121;SDS011;3091;51.506;7.672;2023-05-18T11:50:56;11.97;;;11.57;;
6121;SDS011;3091;51.506;7.672;2023-05-18T11:53:25;10.90;;;10.60;;
6121;SDS011;3091;51.506;7.672;2023-05-18T11:55:52;11.50;;;11.10;;
6121;SDS011;3091;51.506;7.672;2023-05-18T11:58:18;11.10;;;10.80;;
6121;SDS011;3091;51.506;7.672;2023-05-18T12:00:45;11.20;;;10.90;;
6121;SDS011;3091;51.506;7.672;2023-05-18T12:03:11;10.33;;;10.03;;
6121;SDS011;3091;51.506;7.672;2023-05-18T12:05:38;11.07;;;10.73;;
6121;SDS011;3091;51.506;7.672;2023-05-18T12:08:05;10.93;;;10.63;;
6121;SDS011;3091;51.506;7.672;2023-05-18T12:10:33;10.60;;;10.30;;
6121;SDS011;3091;51.506;7.672;2023-05-18T12:13:02;10.90;;;10.60;;
6121;SDS011;3091;51.506;7.672;2023-05-18T12:15:28;12.50;;;11.23;;
6121;SDS011;3091;51.506;7.672;2023-05-18T12:17:57;11.73;;;11.10;;
6121;SDS011;3091;51.506;7.672;2023-05-18T12:20:23;11.70;;;11.30;;
6121;SDS011;3091;51.506;7.672;2023-05-18T12:22:51;10.80;;;10.50;;
6121;SDS011;3091;51.506;7.672;2023-05-18T12:25:18;11.57;;;11.17;;
6121;SDS011;3091;51.506;7.672;2023-05-18T12:27:45;11.37;;;10.77;;
6121;SDS011;3091;51.506;7.672;2023-05-18T12:32:38;10.93;;;10.63;;
6121;SDS011;3091;51.506;7.672;2023-05-18T12:35:08;11.20;;;10.90;;
6121;SDS011;3091;51.506;7.672;2023-05-18T12:37:44;12.40;;;12.00;;
6121;SDS011;3091;51.506;7.672;2023-05-18T12:40:10;12.30;;;11.90;;
6121;SDS011;3091;51.506;7.672;2023-05-18T12:42:36;15.50;;;14.43;;
6121;SDS011;3091;51.506;7.672;2023-05-18T12:45:03;12.70;;;12.30;;
6121;SDS011;3091;51.506;7.672;2023-05-18T12:47:31;11.03;;;10.73;;
6121;SDS011;3091;51.506;7.672;2023-05-18T12:49:59;10.20;;;9.90;;
6121;SDS011;3091;51.506;7.672;2023-05-18T12:52:25;11.03;;;10.70;;
6121;SDS011;3091;51.506;7.672;2023-05-18T12:54:53;11.00;;;10.70;;
6121;SDS011;3091;51.506;7.672;2023-05-18T12:57:20;10.97;;;10.57;;
6121;SDS011;3091;51.506;7.672;2023-05-18T12:59:49;10.83;;;10.53;;
6121;SDS011;3091;51.506;7.672;2023-05-18T13:02:34;11.40;;;11.00;;
6121;SDS011;3091;51.506;7.672;2023-05-18T13:07:30;10.90;;;10.60;;
6121;SDS011;3091;51.506;7.672;2023-05-18T13:10:03;12.70;;;12.20;;
6121;SDS011;3091;51.506;7.672;2023-05-18T13:12:39;13.13;;;12.73;;
6121;SDS011;3091;51.506;7.672;2023-05-18T13:15:16;11.00;;;10.60;;
6121;SDS011;3091;51.506;7.672;2023-05-18T13:20:17;11.73;;;11.33;;
6121;SDS011;3091;51.506;7.672;2023-05-18T13:22:43;11.33;;;10.83;;
6121;SDS011;3091;51.506;7.672;2023-05-18T13:25:09;11.37;;;11.03;;
6121;SDS011;3091;51.506;7.672;2023-05-18T13:27:35;11.00;;;10.70;;
6121;SDS011;3091;51.506;7.672;2023-05-18T13:30:01;10.80;;;10.50;;
6121;SDS011;3091;51.506;7.672;2023-05-18T13:32:27;11.87;;;11.47;;
6121;SDS011;3091;51.506;7.672;2023-05-18T13:34:53;11.40;;;11.00;;
6121;SDS011;3091;51.506;7.672;2023-05-18T13:37:19;12.10;;;11.60;;
6121;SDS011;3091;51.506;7.672;2023-05-18T13:39:46;12.40;;;12.00;;
6121;SDS011;3091;51.506;7.672;2023-05-18T13:42:12;12.80;;;12.40;;
6121;SDS011;3091;51.506;7.672;2023-05-18T13:44:38;13.37;;;12.87;;
6121;SDS011;3091;51.506;7.672;2023-05-18T13:47:04;12.80;;;12.30;;
6121;SDS011;3091;51.506;7.672;2023-05-18T13:49:30;11.10;;;10.80;;
6121;SDS011;3091;51.506;7.672;2023-05-18T13:51:56;10.90;;;10.60;;
6121;SDS011;3091;51.506;7.672;2023-05-18T13:54:24;11.50;;;10.90;;
6121;SDS011;3091;51.506;7.672;2023-05-18T13:56:50;11.40;;;11.00;;
6121;SDS011;3091;51.506;7.672;2023-05-18T13:59:16;10.87;;;10.57;;
6121;SDS011;3091;51.506;7.672;2023-05-18T14:01:43;11.30;;;10.90;;
6121;SDS011;3091;51.506;7.672;2023-05-18T14:04:11;11.37;;;10.87;;
6121;SDS011;3091;51.506;7.672;2023-05-18T14:06:37;10.80;;;10.50;;
6121;SDS011;3091;51.506;7.672;2023-05-18T14:09:03;11.03;;;10.73;;
6121;SDS011;3091;51.506;7.672;2023-05-18T14:11:29;10.90;;;10.60;;
6121;SDS011;3091;51.506;7.672;2023-05-18T14:13:58;11.27;;;10.93;;
6121;SDS011;3091;51.506;7.672;2023-05-18T14:16:24;12.80;;;12.40;;
6121;SDS011;3091;51.506;7.672;2023-05-18T14:18:50;13.80;;;13.23;;
6121;SDS011;3091;51.506;7.672;2023-05-18T14:21:16;12.50;;;12.10;;
6121;SDS011;3091;51.506;7.672;2023-05-18T14:23:42;12.87;;;12.47;;
6121;SDS011;3091;51.506;7.672;2023-05-18T14:26:08;13.20;;;12.70;;
6121;SDS011;3091;51.506;7.672;2023-05-18T14:28:34;12.40;;;12.00;;
6121;SDS011;3091;51.506;7.672;2023-05-18T14:31:00;12.50;;;12.10;;
6121;SDS011;3091;51.506;7.672;2023-05-18T14:33:26;12.90;;;12.50;;
6121;SDS011;3091;51.506;7.672;2023-05-18T14:35:52;12.47;;;12.03;;
6121;SDS011;3091;51.506;7.672;2023-05-18T14:38:19;11.60;;;11.20;;
6121;SDS011;3091;51.506;7.672;2023-05-18T14:40:50;11.23;;;10.93;;
6121;SDS011;3091;51.506;7.672;2023-05-18T14:43:16;11.57;;;11.17;;
6121;SDS011;3091;51.506;7.672;2023-05-18T14:45:42;11.50;;;11.00;;
6121;SDS011;3091;51.506;7.672;2023-05-18T14:48:08;11.30;;;11.00;;
6121;SDS011;3091;51.506;7.672;2023-05-18T14:50:35;11.23;;;10.90;;
6121;SDS011;3091;51.506;7.672;2023-05-18T14:53:01;12.00;;;11.50;;
6121;SDS011;3091;51.506;7.672;2023-05-18T14:55:29;11.23;;;10.93;;
6121;SDS011;3091;51.506;7.672;2023-05-18T14:57:55;11.20;;;10.90;;
6121;SDS011;3091;51.506;7.672;2023-05-18T15:00:22;15.03;;;12.60;;
6121;SDS011;3091;51.506;7.672;2023-05-18T15:02:48;11.10;;;10.80;;
6121;SDS011;3091;51.506;7.672;2023-05-18T15:05:14;11.70;;;11.20;;
6121;SDS011;3091;51.506;7.672;2023-05-18T15:07:40;12.87;;;12.43;;
6121;SDS011;3091;51.506;7.672;2023-05-18T15:10:06;11.87;;;11.47;;
6121;SDS011;3091;51.506;7.672;2023-05-18T15:12:33;11.40;;;11.00;;
6121;SDS011;3091;51.506;7.672;2023-05-18T15:14:59;11.20;;;10.90;;